sensor_id;sensor_type;location;lat;lon;timestamp;P1;durP1;ratioP1;P2;durP2;ratioP2
3941;SDS011;1985;48.592;8.850;2022-08-11T00:00:50;8.80;;;1.70;;
3941;SDS011;1985;48.592;8.850;2022-08-11T00:03:16;8.60;;;1.60;;
3941;SDS011;1985;48.592;8.850;2022-08-11T00:05:50;8.20;;;1.30;;
3941;SDS011;1985;48.592;8.850;2022-08-11T00:08:23;9.30;;;1.35;;
3941;SDS011;1985;48.592;8.850;2022-08-11T00:10:56;9.07;;;1.80;;
3941;SDS011;1985;48.592;8.850;2022-08-11T00:13:31;8.32;;;1.40;;
3941;SDS011;1985;48.592;8.850;2022-08-11T00:15:57;10.18;;;1.80;;
3941;SDS011;1985;48.592;8.850;2022-08-11T00:18:23;9.00;;;1.60;;
3941;SDS011;1985;48.592;8.850;2022-08-11T00:20:49;8.30;;;1.40;;
3941;SDS011;1985;48.592;8.850;2022-08-11T00:23:21;11.45;;;1.48;;
3941;SDS011;1985;48.592;8.850;2022-08-11T00:25:49;8.80;;;1.70;;
3941;SDS011;1985;48.592;8.850;2022-08-11T00:30:47;8.80;;;1.70;;
3941;SDS011;1985;48.592;8.850;2022-08-11T00:33:16;9.30;;;1.63;;
3941;SDS011;1985;48.592;8.850;2022-08-11T00:35:42;8.85;;;1.58;;
3941;SDS011;1985;48.592;8.850;2022-08-11T00:38:09;8.70;;;1.40;;
3941;SDS011;1985;48.592;8.850;2022-08-11T00:40:40;8.90;;;1.60;;
3941;SDS011;1985;48.592;8.850;2022-08-11T00:48:35;8.70;;;1.48;;
3941;SDS011;1985;48.592;8.850;2022-08-11T00:54:05;10.18;;;1.80;;
3941;SDS011;1985;48.592;8.850;2022-08-11T01:00:03;10.00;;;1.60;;
3941;SDS011;1985;48.592;8.850;2022-08-11T01:02:49;8.40;;;1.40;;
3941;SDS011;1985;48.592;8.850;2022-08-11T01:05:48;8.93;;;1.43;;
3941;SDS011;1985;48.592;8.850;2022-08-11T01:11:44;8.60;;;1.50;;
3941;SDS011;1985;48.592;8.850;2022-08-11T01:14:46;8.50;;;1.40;;
3941;SDS011;1985;48.592;8.850;2022-08-11T01:22:58;9.20;;;1.63;;
3941;SDS011;1985;48.592;8.850;2022-08-11T01:51:26;9.70;;;1.65;;
3941;SDS011;1985;48.592;8.850;2022-08-11T01:54:22;11.65;;;1.90;;
3941;SDS011;1985;48.592;8.850;2022-08-11T01:59:41;10.73;;;1.80;;
3941;SDS011;1985;48.592;8.850;2022-08-11T02:11:08;8.38;;;1.40;;
3941;SDS011;1985;48.592;8.850;2022-08-11T02:14:05;8.60;;;1.70;;
3941;SDS011;1985;48.592;8.850;2022-08-11T02:25:39;9.65;;;1.60;;
3941;SDS011;1985;48.592;8.850;2022-08-11T02:31:12;8.70;;;1.80;;
3941;SDS011;1985;48.592;8.850;2022-08-11T02:34:11;9.35;;;1.48;;
3941;SDS011;1985;48.592;8.850;2022-08-11T02:36:48;9.00;;;1.60;;
3941;SDS011;1985;48.592;8.850;2022-08-11T02:39:20;9.25;;;1.70;;
3941;SDS011;1985;48.592;8.850;2022-08-11T03:07:28;9.20;;;1.92;;
3941;SDS011;1985;48.592;8.850;2022-08-11T03:12:47;9.70;;;2.00;;
3941;SDS011;1985;48.592;8.850;2022-08-11T03:15:51;8.75;;;1.70;;
3941;SDS011;1985;48.592;8.850;2022-08-11T03:21:38;10.48;;;1.60;;
3941;SDS011;1985;48.592;8.850;2022-08-11T03:24:28;9.30;;;1.60;;
3941;SDS011;1985;48.592;8.850;2022-08-11T03:27:06;9.10;;;1.70;;
3941;SDS011;1985;48.592;8.850;2022-08-11T03:30:03;9.00;;;1.90;;
3941;SDS011;1985;48.592;8.850;2022-08-11T03:35:46;8.98;;;1.80;;
3941;SDS011;1985;48.592;8.850;2022-08-11T03:38:27;9.25;;;1.80;;
3941;SDS011;1985;48.592;8.850;2022-08-11T03:41:16;10.95;;;1.65;;
3941;SDS011;1985;48.592;8.850;2022-08-11T03:46:58;9.60;;;1.67;;
3941;SDS011;1985;48.592;8.850;2022-08-11T03:50:00;9.98;;;1.95;;
3941;SDS011;1985;48.592;8.850;2022-08-11T03:55:09;13.80;;;2.00;;
3941;SDS011;1985;48.592;8.850;2022-08-11T04:20:28;8.90;;;1.88;;
3941;SDS011;1985;48.592;8.850;2022-08-11T04:51:43;9.50;;;2.00;;
3941;SDS011;1985;48.592;8.850;2022-08-11T04:57:50;11.52;;;2.13;;
3941;SDS011;1985;48.592;8.850;2022-08-11T05:09:22;10.00;;;1.80;;
3941;SDS011;1985;48.592;8.850;2022-08-11T05:12:05;9.07;;;1.70;;
3941;SDS011;1985;48.592;8.850;2022-08-11T05:14:38;8.80;;;1.70;;
3941;SDS011;1985;48.592;8.850;2022-08-11T05:18:18;9.85;;;2.15;;
3941;SDS011;1985;48.592;8.850;2022-08-11T05:20:39;9.00;;;1.80;;
3941;SDS011;1985;48.592;8.850;2022-08-11T05:23:31;9.60;;;2.00;;
3941;SDS011;1985;48.592;8.850;2022-08-11T05:26:25;9.80;;;1.75;;
3941;SDS011;1985;48.592;8.850;2022-08-11T05:29:26;9.35;;;1.88;;
3941;SDS011;1985;48.592;8.850;2022-08-11T05:32:21;8.90;;;1.70;;
3941;SDS011;1985;48.592;8.850;2022-08-11T05:35:06;8.75;;;1.55;;
3941;SDS011;1985;48.592;8.850;2022-08-11T05:37:37;9.43;;;1.80;;
3941;SDS011;1985;48.592;8.850;2022-08-11T05:42:49;10.43;;;2.03;;
3941;SDS011;1985;48.592;8.850;2022-08-11T05:45:38;8.80;;;1.83;;
3941;SDS011;1985;48.592;8.850;2022-08-11T05:48:27;9.40;;;1.80;;
3941;SDS011;1985;48.592;8.850;2022-08-11T05:51:15;8.80;;;1.70;;
3941;SDS011;1985;48.592;8.850;2022-08-11T05:54:00;9.52;;;1.80;;
3941;SDS011;1985;48.592;8.850;2022-08-11T05:56:52;8.75;;;1.63;;
3941;SDS011;1985;48.592;8.850;2022-08-11T05:59:20;9.50;;;2.00;;
3941;SDS011;1985;48.592;8.850;2022-08-11T06:01:47;8.33;;;1.50;;
3941;SDS011;1985;48.592;8.850;2022-08-11T06:04:15;9.43;;;2.20;;
3941;SDS011;1985;48.592;8.850;2022-08-11T06:09:14;10.15;;;1.90;;
3941;SDS011;1985;48.592;8.850;2022-08-11T06:11:47;8.95;;;1.80;;
3941;SDS011;1985;48.592;8.850;2022-08-11T06:14:14;8.80;;;1.60;;
3941;SDS011;1985;48.592;8.850;2022-08-11T06:16:40;9.50;;;1.80;;
3941;SDS011;1985;48.592;8.850;2022-08-11T06:19:07;9.77;;;1.80;;
3941;SDS011;1985;48.592;8.850;2022-08-11T06:21:34;12.35;;;1.95;;
3941;SDS011;1985;48.592;8.850;2022-08-11T06:24:10;9.80;;;1.80;;
3941;SDS011;1985;48.592;8.850;2022-08-11T06:26:38;9.07;;;1.90;;
3941;SDS011;1985;48.592;8.850;2022-08-11T06:29:05;9.18;;;1.73;;
3941;SDS011;1985;48.592;8.850;2022-08-11T06:31:32;9.50;;;1.95;;
3941;SDS011;1985;48.592;8.850;2022-08-11T06:36:40;10.80;;;2.00;;
3941;SDS011;1985;48.592;8.850;2022-08-11T06:39:28;14.63;;;2.22;;
3941;SDS011;1985;48.592;8.850;2022-08-11T06:44:47;8.90;;;1.90;;
3941;SDS011;1985;48.592;8.850;2022-08-11T06:47:25;9.45;;;2.15;;
3941;SDS011;1985;48.592;8.850;2022-08-11T06:49:51;10.88;;;1.80;;
3941;SDS011;1985;48.592;8.850;2022-08-11T06:52:42;9.25;;;1.80;;
3941;SDS011;1985;48.592;8.850;2022-08-11T06:55:12;9.50;;;1.80;;
3941;SDS011;1985;48.592;8.850;2022-08-11T06:58:05;9.47;;;2.00;;
3941;SDS011;1985;48.592;8.850;2022-08-11T07:01:00;9.40;;;2.15;;
3941;SDS011;1985;48.592;8.850;2022-08-11T07:03:33;11.60;;;2.00;;
3941;SDS011;1985;48.592;8.850;2022-08-11T07:06:05;9.00;;;1.83;;
3941;SDS011;1985;48.592;8.850;2022-08-11T07:12:18;10.25;;;2.33;;
3941;SDS011;1985;48.592;8.850;2022-08-11T07:15:22;10.23;;;2.10;;
3941;SDS011;1985;48.592;8.850;2022-08-11T07:18:07;8.80;;;1.80;;
3941;SDS011;1985;48.592;8.850;2022-08-11T07:20:54;9.25;;;1.65;;
3941;SDS011;1985;48.592;8.850;2022-08-11T07:23:52;9.80;;;2.10;;
3941;SDS011;1985;48.592;8.850;2022-08-11T07:26:39;9.35;;;2.00;;
3941;SDS011;1985;48.592;8.850;2022-08-11T07:29:28;12.57;;;2.10;;
3941;SDS011;1985;48.592;8.850;2022-08-11T07:31:57;9.20;;;2.10;;
3941;SDS011;1985;48.592;8.850;2022-08-11T07:34:36;9.57;;;2.00;;
3941;SDS011;1985;48.592;8.850;2022-08-11T07:37:09;9.20;;;2.23;;
3941;SDS011;1985;48.592;8.850;2022-08-11T07:39:40;12.40;;;2.03;;
3941;SDS011;1985;48.592;8.850;2022-08-11T07:42:09;9.90;;;1.83;;
3941;SDS011;1985;48.592;8.850;2022-08-11T07:44:36;9.13;;;1.98;;
3941;SDS011;1985;48.592;8.850;2022-08-11T07:47:24;10.27;;;2.00;;
3941;SDS011;1985;48.592;8.850;2022-08-11T07:50:10;10.18;;;2.20;;
3941;SDS011;1985;48.592;8.850;2022-08-11T07:52:56;9.10;;;1.90;;
3941;SDS011;1985;48.592;8.850;2022-08-11T07:55:23;9.52;;;2.10;;
3941;SDS011;1985;48.592;8.850;2022-08-11T07:57:51;8.70;;;1.80;;
3941;SDS011;1985;48.592;8.850;2022-08-11T08:00:58;8.60;;;1.70;;
3941;SDS011;1985;48.592;8.850;2022-08-11T08:03:42;9.30;;;2.10;;
3941;SDS011;1985;48.592;8.850;2022-08-11T08:06:27;11.10;;;2.20;;
3941;SDS011;1985;48.592;8.850;2022-08-11T08:09:14;10.00;;;2.00;;
3941;SDS011;1985;48.592;8.850;2022-08-11T08:12:03;9.18;;;2.00;;
3941;SDS011;1985;48.592;8.850;2022-08-11T08:14:49;8.70;;;1.60;;
3941;SDS011;1985;48.592;8.850;2022-08-11T08:17:35;9.93;;;2.20;;
3941;SDS011;1985;48.592;8.850;2022-08-11T08:20:17;8.33;;;1.80;;
3941;SDS011;1985;48.592;8.850;2022-08-11T08:22:54;11.60;;;1.70;;
3941;SDS011;1985;48.592;8.850;2022-08-11T08:25:22;10.50;;;2.28;;
3941;SDS011;1985;48.592;8.850;2022-08-11T08:27:52;10.43;;;2.00;;
3941;SDS011;1985;48.592;8.850;2022-08-11T08:30:20;9.30;;;1.70;;
3941;SDS011;1985;48.592;8.850;2022-08-11T08:33:05;8.50;;;1.83;;
3941;SDS011;1985;48.592;8.850;2022-08-11T08:35:33;8.80;;;1.80;;
3941;SDS011;1985;48.592;8.850;2022-08-11T08:38:01;10.43;;;2.00;;
3941;SDS011;1985;48.592;8.850;2022-08-11T08:40:27;8.23;;;1.60;;
3941;SDS011;1985;48.592;8.850;2022-08-11T08:42:57;8.70;;;1.80;;
3941;SDS011;1985;48.592;8.850;2022-08-11T08:45:27;9.80;;;2.00;;
3941;SDS011;1985;48.592;8.850;2022-08-11T08:50:26;9.88;;;2.20;;
3941;SDS011;1985;48.592;8.850;2022-08-11T08:53:16;9.07;;;1.90;;
3941;SDS011;1985;48.592;8.850;2022-08-11T08:55:46;9.50;;;2.03;;
3941;SDS011;1985;48.592;8.850;2022-08-11T08:58:14;8.60;;;1.70;;
3941;SDS011;1985;48.592;8.850;2022-08-11T09:00:43;9.40;;;2.03;;
3941;SDS011;1985;48.592;8.850;2022-08-11T09:03:11;8.95;;;2.00;;
3941;SDS011;1985;48.592;8.850;2022-08-11T09:05:38;8.23;;;1.75;;
3941;SDS011;1985;48.592;8.850;2022-08-11T09:08:05;8.50;;;1.70;;
3941;SDS011;1985;48.592;8.850;2022-08-11T09:10:31;9.30;;;1.60;;
3941;SDS011;1985;48.592;8.850;2022-08-11T09:12:58;9.40;;;2.40;;
3941;SDS011;1985;48.592;8.850;2022-08-11T09:15:24;9.90;;;1.90;;
3941;SDS011;1985;48.592;8.850;2022-08-11T09:17:53;9.40;;;2.00;;
3941;SDS011;1985;48.592;8.850;2022-08-11T09:20:25;9.60;;;2.15;;
3941;SDS011;1985;48.592;8.850;2022-08-11T09:22:56;9.88;;;1.95;;
3941;SDS011;1985;48.592;8.850;2022-08-11T09:25:42;9.55;;;1.90;;
3941;SDS011;1985;48.592;8.850;2022-08-11T09:28:27;9.30;;;1.98;;
3941;SDS011;1985;48.592;8.850;2022-08-11T09:30:55;9.80;;;1.90;;
3941;SDS011;1985;48.592;8.850;2022-08-11T09:33:25;9.65;;;1.90;;
3941;SDS011;1985;48.592;8.850;2022-08-11T09:35:53;8.82;;;1.90;;
3941;SDS011;1985;48.592;8.850;2022-08-11T09:38:19;9.40;;;1.90;;
3941;SDS011;1985;48.592;8.850;2022-08-11T09:41:09;8.55;;;1.90;;
3941;SDS011;1985;48.592;8.850;2022-08-11T09:43:41;8.27;;;1.70;;
3941;SDS011;1985;48.592;8.850;2022-08-11T09:46:27;11.17;;;1.60;;
3941;SDS011;1985;48.592;8.850;2022-08-11T09:48:54;10.50;;;1.90;;
3941;SDS011;1985;48.592;8.850;2022-08-11T09:51:23;8.20;;;1.40;;
3941;SDS011;1985;48.592;8.850;2022-08-11T09:53:50;10.00;;;1.80;;
3941;SDS011;1985;48.592;8.850;2022-08-11T09:56:18;9.30;;;2.00;;
3941;SDS011;1985;48.592;8.850;2022-08-11T09:59:04;8.47;;;1.67;;
3941;SDS011;1985;48.592;8.850;2022-08-11T10:01:35;8.32;;;1.75;;
3941;SDS011;1985;48.592;8.850;2022-08-11T10:04:11;12.13;;;2.03;;
3941;SDS011;1985;48.592;8.850;2022-08-11T10:06:42;8.00;;;1.40;;
3941;SDS011;1985;48.592;8.850;2022-08-11T10:12:27;10.55;;;1.88;;
3941;SDS011;1985;48.592;8.850;2022-08-11T10:15:00;8.45;;;1.70;;
3941;SDS011;1985;48.592;8.850;2022-08-11T10:17:51;7.93;;;1.40;;
3941;SDS011;1985;48.592;8.850;2022-08-11T10:20:39;9.02;;;1.70;;
3941;SDS011;1985;48.592;8.850;2022-08-11T10:23:06;8.50;;;1.70;;
3941;SDS011;1985;48.592;8.850;2022-08-11T10:25:52;8.97;;;2.10;;
3941;SDS011;1985;48.592;8.850;2022-08-11T10:28:37;7.80;;;1.50;;
3941;SDS011;1985;48.592;8.850;2022-08-11T10:31:03;8.77;;;1.60;;
3941;SDS011;1985;48.592;8.850;2022-08-11T10:33:48;8.23;;;1.70;;
3941;SDS011;1985;48.592;8.850;2022-08-11T10:36:24;7.88;;;1.33;;
3941;SDS011;1985;48.592;8.850;2022-08-11T10:38:52;8.80;;;1.70;;
3941;SDS011;1985;48.592;8.850;2022-08-11T10:41:18;8.48;;;1.40;;
3941;SDS011;1985;48.592;8.850;2022-08-11T10:44:03;8.75;;;1.52;;
3941;SDS011;1985;48.592;8.850;2022-08-11T10:46:31;7.57;;;1.30;;
3941;SDS011;1985;48.592;8.850;2022-08-11T10:49:16;8.70;;;1.50;;
3941;SDS011;1985;48.592;8.850;2022-08-11T10:51:42;7.90;;;1.40;;
3941;SDS011;1985;48.592;8.850;2022-08-11T10:54:27;10.20;;;1.77;;
3941;SDS011;1985;48.592;8.850;2022-08-11T10:57:13;8.20;;;1.60;;
3941;SDS011;1985;48.592;8.850;2022-08-11T10:59:59;7.90;;;1.70;;
3941;SDS011;1985;48.592;8.850;2022-08-11T11:02:26;7.68;;;1.50;;
3941;SDS011;1985;48.592;8.850;2022-08-11T11:05:35;8.18;;;1.60;;
3941;SDS011;1985;48.592;8.850;2022-08-11T11:10:18;9.15;;;1.50;;
3941;SDS011;1985;48.592;8.850;2022-08-11T11:12:45;9.32;;;1.40;;
3941;SDS011;1985;48.592;8.850;2022-08-11T11:15:34;7.63;;;1.60;;
3941;SDS011;1985;48.592;8.850;2022-08-11T11:18:20;8.10;;;1.70;;
3941;SDS011;1985;48.592;8.850;2022-08-11T11:20:51;8.10;;;1.60;;
3941;SDS011;1985;48.592;8.850;2022-08-11T11:31:19;9.57;;;1.50;;
3941;SDS011;1985;48.592;8.850;2022-08-11T11:34:14;7.53;;;1.30;;
3941;SDS011;1985;48.592;8.850;2022-08-11T11:36:54;9.55;;;1.42;;
3941;SDS011;1985;48.592;8.850;2022-08-11T11:39:22;8.10;;;1.60;;
3941;SDS011;1985;48.592;8.850;2022-08-11T11:41:50;7.70;;;1.20;;
3941;SDS011;1985;48.592;8.850;2022-08-11T11:44:18;9.43;;;1.70;;
3941;SDS011;1985;48.592;8.850;2022-08-11T11:46:47;8.40;;;1.45;;
3941;SDS011;1985;48.592;8.850;2022-08-11T11:49:15;7.60;;;1.50;;
3941;SDS011;1985;48.592;8.850;2022-08-11T11:51:46;7.38;;;1.25;;
3941;SDS011;1985;48.592;8.850;2022-08-11T11:54:14;8.20;;;1.30;;
3941;SDS011;1985;48.592;8.850;2022-08-11T11:56:40;7.60;;;1.30;;
3941;SDS011;1985;48.592;8.850;2022-08-11T11:59:07;7.93;;;1.30;;
3941;SDS011;1985;48.592;8.850;2022-08-11T12:01:53;7.45;;;1.40;;
3941;SDS011;1985;48.592;8.850;2022-08-11T12:04:21;7.50;;;1.20;;
3941;SDS011;1985;48.592;8.850;2022-08-11T12:06:47;9.43;;;1.40;;
3941;SDS011;1985;48.592;8.850;2022-08-11T12:09:14;7.80;;;1.70;;
3941;SDS011;1985;48.592;8.850;2022-08-11T12:11:42;8.32;;;1.50;;
3941;SDS011;1985;48.592;8.850;2022-08-11T12:14:28;7.50;;;1.30;;
3941;SDS011;1985;48.592;8.850;2022-08-11T12:16:55;7.70;;;1.40;;
3941;SDS011;1985;48.592;8.850;2022-08-11T12:19:25;7.50;;;1.30;;
3941;SDS011;1985;48.592;8.850;2022-08-11T12:21:55;7.30;;;1.30;;
3941;SDS011;1985;48.592;8.850;2022-08-11T12:24:39;7.70;;;1.45;;
3941;SDS011;1985;48.592;8.850;2022-08-11T12:27:25;9.25;;;1.42;;
3941;SDS011;1985;48.592;8.850;2022-08-11T12:30:00;7.90;;;1.40;;
3941;SDS011;1985;48.592;8.850;2022-08-11T12:32:33;7.68;;;1.30;;
3941;SDS011;1985;48.592;8.850;2022-08-11T12:35:01;9.85;;;1.50;;
3941;SDS011;1985;48.592;8.850;2022-08-11T12:37:36;7.70;;;1.50;;
3941;SDS011;1985;48.592;8.850;2022-08-11T12:40:25;7.97;;;1.50;;
3941;SDS011;1985;48.592;8.850;2022-08-11T12:43:14;8.40;;;1.60;;
3941;SDS011;1985;48.592;8.850;2022-08-11T12:46:02;7.47;;;1.38;;
3941;SDS011;1985;48.592;8.850;2022-08-11T12:48:31;6.97;;;1.10;;
3941;SDS011;1985;48.592;8.850;2022-08-11T12:51:19;8.55;;;1.23;;
3941;SDS011;1985;48.592;8.850;2022-08-11T12:54:20;7.30;;;1.20;;
3941;SDS011;1985;48.592;8.850;2022-08-11T12:57:02;7.50;;;1.30;;
3941;SDS011;1985;48.592;8.850;2022-08-11T12:59:52;8.55;;;1.50;;
3941;SDS011;1985;48.592;8.850;2022-08-11T13:02:38;7.22;;;1.40;;
3941;SDS011;1985;48.592;8.850;2022-08-11T13:05:24;8.48;;;1.52;;
3941;SDS011;1985;48.592;8.850;2022-08-11T13:07:50;8.70;;;1.58;;
3941;SDS011;1985;48.592;8.850;2022-08-11T13:10:17;7.80;;;1.25;;
3941;SDS011;1985;48.592;8.850;2022-08-11T13:13:03;7.60;;;1.40;;
3941;SDS011;1985;48.592;8.850;2022-08-11T13:15:31;9.50;;;1.40;;
3941;SDS011;1985;48.592;8.850;2022-08-11T13:17:58;8.10;;;1.30;;
3941;SDS011;1985;48.592;8.850;2022-08-11T13:20:25;7.80;;;1.30;;
3941;SDS011;1985;48.592;8.850;2022-08-11T13:22:52;7.97;;;1.50;;
3941;SDS011;1985;48.592;8.850;2022-08-11T13:25:20;7.97;;;1.80;;
3941;SDS011;1985;48.592;8.850;2022-08-11T13:27:48;7.45;;;1.25;;
3941;SDS011;1985;48.592;8.850;2022-08-11T13:30:16;7.30;;;1.30;;
3941;SDS011;1985;48.592;8.850;2022-08-11T13:33:01;8.05;;;1.40;;
3941;SDS011;1985;48.592;8.850;2022-08-11T13:35:29;8.90;;;1.37;;
3941;SDS011;1985;48.592;8.850;2022-08-11T13:37:57;8.93;;;1.33;;
3941;SDS011;1985;48.592;8.850;2022-08-11T13:40:25;7.78;;;1.20;;
3941;SDS011;1985;48.592;8.850;2022-08-11T13:42:51;7.40;;;1.15;;
3941;SDS011;1985;48.592;8.850;2022-08-11T13:45:18;7.40;;;1.38;;
3941;SDS011;1985;48.592;8.850;2022-08-11T13:47:47;7.40;;;1.35;;
3941;SDS011;1985;48.592;8.850;2022-08-11T13:50:15;7.40;;;1.40;;
3941;SDS011;1985;48.592;8.850;2022-08-11T13:52:42;7.90;;;1.50;;
3941;SDS011;1985;48.592;8.850;2022-08-11T13:55:10;7.70;;;1.10;;
3941;SDS011;1985;48.592;8.850;2022-08-11T13:57:55;7.30;;;1.50;;
3941;SDS011;1985;48.592;8.850;2022-08-11T14:00:21;7.50;;;1.40;;
3941;SDS011;1985;48.592;8.850;2022-08-11T14:02:47;9.68;;;1.38;;
3941;SDS011;1985;48.592;8.850;2022-08-11T14:05:15;7.53;;;1.27;;
3941;SDS011;1985;48.592;8.850;2022-08-11T14:07:52;7.70;;;1.35;;
3941;SDS011;1985;48.592;8.850;2022-08-11T14:10:23;7.47;;;1.30;;
3941;SDS011;1985;48.592;8.850;2022-08-11T14:12:56;7.80;;;1.55;;
3941;SDS011;1985;48.592;8.850;2022-08-11T14:15:44;7.28;;;1.20;;
3941;SDS011;1985;48.592;8.850;2022-08-11T14:18:19;8.50;;;1.58;;
3941;SDS011;1985;48.592;8.850;2022-08-11T14:20:48;7.68;;;1.30;;
3941;SDS011;1985;48.592;8.850;2022-08-11T14:23:42;7.30;;;1.23;;
3941;SDS011;1985;48.592;8.850;2022-08-11T14:26:10;7.28;;;1.20;;
3941;SDS011;1985;48.592;8.850;2022-08-11T14:31:32;8.90;;;1.60;;
3941;SDS011;1985;48.592;8.850;2022-08-11T14:34:01;7.70;;;1.30;;
3941;SDS011;1985;48.592;8.850;2022-08-11T14:36:29;9.00;;;1.60;;
3941;SDS011;1985;48.592;8.850;2022-08-11T14:38:57;7.55;;;1.50;;
3941;SDS011;1985;48.592;8.850;2022-08-11T14:41:26;7.10;;;1.30;;
3941;SDS011;1985;48.592;8.850;2022-08-11T14:44:10;7.20;;;1.20;;
3941;SDS011;1985;48.592;8.850;2022-08-11T14:46:55;8.60;;;1.40;;
3941;SDS011;1985;48.592;8.850;2022-08-11T14:49:30;7.72;;;1.50;;
3941;SDS011;1985;48.592;8.850;2022-08-11T14:51:59;7.80;;;1.63;;
3941;SDS011;1985;48.592;8.850;2022-08-11T14:54:28;9.18;;;1.52;;
3941;SDS011;1985;48.592;8.850;2022-08-11T14:57:13;7.55;;;1.50;;
3941;SDS011;1985;48.592;8.850;2022-08-11T14:59:44;7.60;;;1.30;;
3941;SDS011;1985;48.592;8.850;2022-08-11T15:02:12;7.40;;;1.33;;
3941;SDS011;1985;48.592;8.850;2022-08-11T15:04:58;7.50;;;1.13;;
3941;SDS011;1985;48.592;8.850;2022-08-11T15:07:26;7.47;;;1.30;;
3941;SDS011;1985;48.592;8.850;2022-08-11T15:09:58;7.40;;;1.33;;
3941;SDS011;1985;48.592;8.850;2022-08-11T15:12:26;7.50;;;1.33;;
3941;SDS011;1985;48.592;8.850;2022-08-11T15:14:53;7.82;;;1.40;;
3941;SDS011;1985;48.592;8.850;2022-08-11T15:17:38;8.53;;;1.40;;
3941;SDS011;1985;48.592;8.850;2022-08-11T15:20:06;8.80;;;1.50;;
3941;SDS011;1985;48.592;8.850;2022-08-11T15:22:53;8.00;;;1.40;;
3941;SDS011;1985;48.592;8.850;2022-08-11T15:25:38;8.18;;;1.50;;
3941;SDS011;1985;48.592;8.850;2022-08-11T15:28:10;8.02;;;1.58;;
3941;SDS011;1985;48.592;8.850;2022-08-11T15:30:58;8.35;;;1.50;;
3941;SDS011;1985;48.592;8.850;2022-08-11T15:33:44;7.60;;;1.20;;
3941;SDS011;1985;48.592;8.850;2022-08-11T15:36:33;7.85;;;1.42;;
3941;SDS011;1985;48.592;8.850;2022-08-11T15:39:20;7.90;;;1.50;;
3941;SDS011;1985;48.592;8.850;2022-08-11T15:41:59;7.90;;;1.50;;
3941;SDS011;1985;48.592;8.850;2022-08-11T15:44:46;7.30;;;1.20;;
3941;SDS011;1985;48.592;8.850;2022-08-11T15:47:39;8.40;;;1.52;;
3941;SDS011;1985;48.592;8.850;2022-08-11T15:50:12;8.20;;;1.30;;
3941;SDS011;1985;48.592;8.850;2022-08-11T15:52:48;8.02;;;1.33;;
3941;SDS011;1985;48.592;8.850;2022-08-11T15:55:20;8.25;;;1.38;;
3941;SDS011;1985;48.592;8.850;2022-08-11T15:57:48;7.50;;;1.30;;
3941;SDS011;1985;48.592;8.850;2022-08-11T16:00:36;9.40;;;1.40;;
3941;SDS011;1985;48.592;8.850;2022-08-11T16:03:52;7.78;;;1.40;;
3941;SDS011;1985;48.592;8.850;2022-08-11T16:06:44;8.03;;;1.30;;
3941;SDS011;1985;48.592;8.850;2022-08-11T16:12:36;7.80;;;1.40;;
3941;SDS011;1985;48.592;8.850;2022-08-11T16:15:28;9.65;;;1.55;;
3941;SDS011;1985;48.592;8.850;2022-08-11T16:18:15;7.60;;;1.30;;
3941;SDS011;1985;48.592;8.850;2022-08-11T16:20:45;7.40;;;1.30;;
3941;SDS011;1985;48.592;8.850;2022-08-11T16:23:13;7.95;;;1.40;;
3941;SDS011;1985;48.592;8.850;2022-08-11T16:25:41;7.80;;;1.37;;
3941;SDS011;1985;48.592;8.850;2022-08-11T16:28:08;7.65;;;1.30;;
3941;SDS011;1985;48.592;8.850;2022-08-11T16:30:40;7.60;;;1.30;;
3941;SDS011;1985;48.592;8.850;2022-08-11T16:33:07;8.30;;;1.17;;
3941;SDS011;1985;48.592;8.850;2022-08-11T16:35:36;8.27;;;1.40;;
3941;SDS011;1985;48.592;8.850;2022-08-11T16:38:23;8.70;;;1.23;;
3941;SDS011;1985;48.592;8.850;2022-08-11T16:41:00;9.90;;;1.60;;
3941;SDS011;1985;48.592;8.850;2022-08-11T16:43:31;9.57;;;1.80;;
3941;SDS011;1985;48.592;8.850;2022-08-11T16:46:18;9.82;;;2.10;;
3941;SDS011;1985;48.592;8.850;2022-08-11T16:49:05;7.75;;;1.30;;
3941;SDS011;1985;48.592;8.850;2022-08-11T16:51:34;8.10;;;1.60;;
3941;SDS011;1985;48.592;8.850;2022-08-11T16:54:00;8.18;;;1.35;;
3941;SDS011;1985;48.592;8.850;2022-08-11T16:56:27;8.00;;;1.40;;
3941;SDS011;1985;48.592;8.850;2022-08-11T16:58:59;8.00;;;1.40;;
3941;SDS011;1985;48.592;8.850;2022-08-11T17:01:51;7.60;;;1.50;;
3941;SDS011;1985;48.592;8.850;2022-08-11T17:04:37;8.63;;;1.47;;
3941;SDS011;1985;48.592;8.850;2022-08-11T17:07:25;8.98;;;1.70;;
3941;SDS011;1985;48.592;8.850;2022-08-11T17:10:14;7.78;;;1.65;;
3941;SDS011;1985;48.592;8.850;2022-08-11T17:13:12;7.90;;;1.40;;
3941;SDS011;1985;48.592;8.850;2022-08-11T17:15:41;7.90;;;1.40;;
3941;SDS011;1985;48.592;8.850;2022-08-11T17:18:30;8.25;;;1.55;;
3941;SDS011;1985;48.592;8.850;2022-08-11T17:21:22;7.65;;;1.30;;
3941;SDS011;1985;48.592;8.850;2022-08-11T17:24:05;7.63;;;1.30;;
3941;SDS011;1985;48.592;8.850;2022-08-11T17:29:32;7.90;;;1.40;;
3941;SDS011;1985;48.592;8.850;2022-08-11T17:32:00;7.80;;;1.40;;
3941;SDS011;1985;48.592;8.850;2022-08-11T17:34:48;12.73;;;1.60;;
3941;SDS011;1985;48.592;8.850;2022-08-11T17:37:35;7.90;;;1.30;;
3941;SDS011;1985;48.592;8.850;2022-08-11T17:40:03;8.02;;;1.50;;
3941;SDS011;1985;48.592;8.850;2022-08-11T17:42:32;8.03;;;1.27;;
3941;SDS011;1985;48.592;8.850;2022-08-11T17:45:18;8.63;;;1.60;;
3941;SDS011;1985;48.592;8.850;2022-08-11T17:48:04;7.80;;;1.33;;
3941;SDS011;1985;48.592;8.850;2022-08-11T17:50:59;9.10;;;1.40;;
3941;SDS011;1985;48.592;8.850;2022-08-11T17:53:32;7.80;;;1.50;;
3941;SDS011;1985;48.592;8.850;2022-08-11T17:56:22;8.40;;;1.52;;
3941;SDS011;1985;48.592;8.850;2022-08-11T17:59:08;8.63;;;1.67;;
3941;SDS011;1985;48.592;8.850;2022-08-11T18:01:54;7.70;;;1.30;;
3941;SDS011;1985;48.592;8.850;2022-08-11T18:04:43;7.35;;;1.20;;
3941;SDS011;1985;48.592;8.850;2022-08-11T18:07:11;7.53;;;1.30;;
3941;SDS011;1985;48.592;8.850;2022-08-11T18:09:56;10.80;;;1.50;;
3941;SDS011;1985;48.592;8.850;2022-08-11T18:12:41;7.90;;;1.40;;
3941;SDS011;1985;48.592;8.850;2022-08-11T18:15:26;9.13;;;1.40;;
3941;SDS011;1985;48.592;8.850;2022-08-11T18:18:12;8.18;;;1.60;;
3941;SDS011;1985;48.592;8.850;2022-08-11T18:20:56;8.10;;;1.48;;
3941;SDS011;1985;48.592;8.850;2022-08-11T18:23:41;7.90;;;1.50;;
3941;SDS011;1985;48.592;8.850;2022-08-11T18:26:25;8.18;;;1.60;;
3941;SDS011;1985;48.592;8.850;2022-08-11T18:29:11;8.50;;;1.40;;
3941;SDS011;1985;48.592;8.850;2022-08-11T18:31:59;8.00;;;1.30;;
3941;SDS011;1985;48.592;8.850;2022-08-11T18:34:45;11.20;;;1.60;;
3941;SDS011;1985;48.592;8.850;2022-08-11T18:37:31;9.40;;;1.73;;
3941;SDS011;1985;48.592;8.850;2022-08-11T18:40:23;8.30;;;1.10;;
3941;SDS011;1985;48.592;8.850;2022-08-11T18:43:10;9.18;;;1.60;;
3941;SDS011;1985;48.592;8.850;2022-08-11T18:46:00;7.85;;;1.35;;
3941;SDS011;1985;48.592;8.850;2022-08-11T18:48:48;8.27;;;1.30;;
3941;SDS011;1985;48.592;8.850;2022-08-11T18:51:35;7.80;;;1.40;;
3941;SDS011;1985;48.592;8.850;2022-08-11T18:54:21;7.85;;;1.30;;
3941;SDS011;1985;48.592;8.850;2022-08-11T18:57:08;8.10;;;1.40;;
3941;SDS011;1985;48.592;8.850;2022-08-11T18:59:53;8.27;;;1.48;;
3941;SDS011;1985;48.592;8.850;2022-08-11T19:02:42;8.10;;;1.50;;
3941;SDS011;1985;48.592;8.850;2022-08-11T19:05:29;9.13;;;1.80;;
3941;SDS011;1985;48.592;8.850;2022-08-11T19:08:15;10.07;;;1.75;;
3941;SDS011;1985;48.592;8.850;2022-08-11T19:11:02;9.80;;;1.77;;
3941;SDS011;1985;48.592;8.850;2022-08-11T19:13:48;8.50;;;1.60;;
3941;SDS011;1985;48.592;8.850;2022-08-11T19:16:34;8.30;;;1.60;;
3941;SDS011;1985;48.592;8.850;2022-08-11T19:19:20;9.40;;;1.47;;
3941;SDS011;1985;48.592;8.850;2022-08-11T19:22:05;8.90;;;1.60;;
3941;SDS011;1985;48.592;8.850;2022-08-11T19:24:52;8.70;;;1.60;;
3941;SDS011;1985;48.592;8.850;2022-08-11T19:27:39;8.05;;;1.58;;
3941;SDS011;1985;48.592;8.850;2022-08-11T19:30:25;9.00;;;1.70;;
3941;SDS011;1985;48.592;8.850;2022-08-11T19:33:11;9.10;;;1.90;;
3941;SDS011;1985;48.592;8.850;2022-08-11T19:35:57;8.98;;;1.60;;
3941;SDS011;1985;48.592;8.850;2022-08-11T19:38:42;11.00;;;1.70;;
3941;SDS011;1985;48.592;8.850;2022-08-11T19:41:27;12.35;;;1.40;;
3941;SDS011;1985;48.592;8.850;2022-08-11T19:44:12;8.40;;;1.53;;
3941;SDS011;1985;48.592;8.850;2022-08-11T19:46:58;12.50;;;1.80;;
3941;SDS011;1985;48.592;8.850;2022-08-11T19:49:44;9.32;;;1.65;;
3941;SDS011;1985;48.592;8.850;2022-08-11T19:52:30;8.87;;;1.60;;
3941;SDS011;1985;48.592;8.850;2022-08-11T19:55:15;8.00;;;1.52;;
3941;SDS011;1985;48.592;8.850;2022-08-11T19:58:00;8.50;;;1.40;;